Time;durP1;ratioP1;P1;durP2;ratioP2;P2;SDS_P1;SDS_P2;PMS_P1;PMS_P2;Temp;Humidity;BMP_temperature;BMP_pressure;BME280_temperature;BME280_humidity;BME280_pressure;Samples;Min_cycle;Max_cycle;Signal;HPM_P1;HPM_P2
2022/04/21 00:02:39;;;;;;;7.00;6.17;;;7.50;93.30;;;;;;6130744;29;20484;-61
2022/04/21 00:05:42;;;;;;;7.83;7.13;;;7.60;93.00;;;;;;6131084;29;20476;-61
2022/04/21 00:08:45;;;;;;;8.93;7.17;;;7.50;92.90;;;;;;6130098;29;20515;-62
2022/04/21 00:11:48;;;;;;;7.60;6.90;;;7.40;92.90;;;;;;6130904;29;20472;-61
2022/04/21 00:14:52;;;;;;;7.33;6.53;;;7.40;93.10;;;;;;6130481;29;20619;-61
2022/04/21 00:17:58;;;;;;;8.07;7.27;;;7.40;93.20;;;;;;6130401;29;20588;-61
2022/04/21 00:21:02;;;;;;;7.27;6.67;;;7.40;93.40;;;;;;6129173;29;20484;-61
2022/04/21 00:24:04;;;;;;;8.37;7.57;;;7.40;94.50;;;;;;6126072;29;20990;-61
2022/04/21 00:27:07;;;;;;;8.07;7.23;;;7.30;94.70;;;;;;6127869;29;20476;-61
2022/04/21 00:30:12;;;;;;;8.63;7.50;;;7.30;95.00;;;;;;6127881;29;20475;-61
2022/04/21 00:33:17;;;;;;;7.60;6.80;;;7.20;94.90;;;;;;6128776;29;20804;-61
2022/04/21 00:36:20;;;;;;;9.00;7.37;;;7.20;95.20;;;;;;6128826;29;20474;-61
2022/04/21 00:39:23;;;;;;;8.40;7.60;;;7.20;95.00;;;;;;6128828;29;20482;-61
2022/04/21 00:42:26;;;;;;;8.30;7.60;;;7.20;94.80;;;;;;6129609;29;20468;-61
2022/04/21 00:45:31;;;;;;;7.80;6.93;;;7.20;94.80;;;;;;6128254;29;20468;-61
2022/04/21 00:48:36;;;;;;;7.80;7.10;;;7.20;94.80;;;;;;6128294;29;20881;-61
2022/04/21 00:51:39;;;;;;;8.00;7.30;;;7.10;94.60;;;;;;6126391;29;20495;-62
2022/04/21 00:54:44;;;;;;;7.33;6.73;;;7.10;94.70;;;;;;6124462;29;20476;-62
2022/04/21 00:57:48;;;;;;;7.73;7.07;;;7.00;94.80;;;;;;6119636;29;20537;-64
2022/04/21 01:00:51;;;;;;;9.20;8.43;;;7.00;95.00;;;;;;6118562;29;20476;-64
2022/04/21 01:03:56;;;;;;;8.10;7.40;;;7.00;95.20;;;;;;6119947;29;20486;-62
2022/04/21 01:06:59;;;;;;;8.30;7.50;;;6.90;95.30;;;;;;6113999;29;20471;-62
2022/04/21 01:10:02;;;;;;;7.67;6.87;;;6.90;95.40;;;;;;6118194;29;20991;-62
2022/04/21 01:13:07;;;;;;;7.53;6.83;;;6.80;95.30;;;;;;6116734;29;20486;-63
2022/04/21 01:16:10;;;;;;;8.53;7.73;;;6.80;95.70;;;;;;6123303;29;20512;-62
2022/04/21 01:19:15;;;;;;;7.30;6.70;;;6.80;96.00;;;;;;6117726;29;20916;-63
2022/04/21 01:22:20;;;;;;;7.93;7.20;;;6.80;95.70;;;;;;6110739;29;20480;-62
2022/04/21 01:25:24;;;;;;;7.93;7.07;;;6.80;95.70;;;;;;6106124;29;20483;-62
2022/04/21 01:28:27;;;;;;;7.60;6.90;;;6.80;95.70;;;;;;6106132;29;20476;-63
2022/04/21 01:31:31;;;;;;;8.27;7.40;;;6.70;95.70;;;;;;6105638;29;20476;-62
2022/04/21 01:34:34;;;;;;;8.10;7.37;;;6.70;96.00;;;;;;6114775;29;20486;-62
2022/04/21 01:41:12;;;;;;;7.53;6.93;;;6.70;95.90;;;;;;6124184;29;20480;-63
2022/04/21 01:44:15;;;;;;;7.50;6.97;;;6.70;96.00;;;;;;6118787;29;20473;-64
2022/04/21 01:47:18;;;;;;;7.57;6.80;;;6.60;96.50;;;;;;6122615;29;20471;-62
2022/04/21 01:50:22;;;;;;;10.80;7.93;;;6.60;96.20;;;;;;6118609;29;20471;-63
2022/04/21 01:53:26;;;;;;;8.10;7.30;;;6.60;96.30;;;;;;6106370;29;20565;-62
2022/04/21 01:56:30;;;;;;;9.10;8.10;;;6.60;96.40;;;;;;6127821;29;20976;-62
2022/04/21 01:59:33;;;;;;;8.37;7.40;;;6.50;96.50;;;;;;6129030;29;20479;-62
2022/04/21 02:02:36;;;;;;;8.03;7.23;;;6.60;96.60;;;;;;6128824;29;20488;-62
2022/04/21 02:05:40;;;;;;;9.30;8.57;;;6.50;96.60;;;;;;6128648;29;20502;-63
2022/04/21 02:08:46;;;;;;;8.27;7.50;;;6.60;96.60;;;;;;6128873;29;20860;-62
2022/04/21 02:11:50;;;;;;;9.10;8.20;;;6.60;96.50;;;;;;6128893;29;20472;-63
2022/04/21 02:14:53;;;;;;;8.87;8.00;;;6.50;96.40;;;;;;6128829;29;20468;-62
2022/04/21 02:17:56;;;;;;;8.73;7.93;;;6.50;96.40;;;;;;6128840;29;20467;-62
2022/04/21 02:20:59;;;;;;;9.07;8.27;;;6.40;96.90;;;;;;6128925;29;20472;-62
2022/04/21 02:24:04;;;;;;;8.23;7.43;;;6.40;96.70;;;;;;6127832;29;20483;-63
2022/04/21 02:27:08;;;;;;;8.03;7.20;;;6.30;96.80;;;;;;6127561;29;20498;-62
2022/04/21 02:30:13;;;;;;;9.07;7.40;;;6.30;96.90;;;;;;6128981;29;20480;-62
2022/04/21 02:33:16;;;;;;;7.97;7.17;;;6.30;96.80;;;;;;6132150;29;20498;-63
2022/04/21 02:36:19;;;;;;;8.67;7.80;;;6.30;97.00;;;;;;6132206;29;20476;-63
2022/04/21 02:39:24;;;;;;;11.10;8.23;;;6.20;97.00;;;;;;6132297;29;20486;-63
2022/04/21 02:42:27;;;;;;;7.83;7.23;;;6.20;97.10;;;;;;6132665;29;20959;-62
2022/04/21 02:45:30;;;;;;;8.30;7.50;;;6.20;97.40;;;;;;6132461;29;20480;-63
2022/04/21 02:48:35;;;;;;;9.13;7.90;;;6.20;97.80;;;;;;6131506;29;20998;-62
2022/04/21 02:51:38;;;;;;;8.63;7.50;;;6.20;97.40;;;;;;6131157;29;20975;-62
2022/04/21 02:58:05;;;;;;;9.03;7.53;;;6.10;97.60;;;;;;6131534;28;20463;-62
2022/04/21 03:01:08;;;;;;;7.10;6.50;;;6.10;98.00;;;;;;6131894;29;20462;-62
2022/04/21 03:04:11;;;;;;;7.13;6.43;;;6.10;97.70;;;;;;6131385;29;20471;-62
2022/04/21 03:07:17;;;;;;;9.30;8.03;;;6.10;97.90;;;;;;6131527;29;20448;-65
2022/04/21 03:10:22;;;;;;;7.83;7.03;;;6.00;97.90;;;;;;6130801;29;20483;-62
2022/04/21 03:13:25;;;;;;;7.80;7.10;;;6.00;98.00;;;;;;6131624;29;20482;-62
2022/04/21 03:16:28;;;;;;;7.90;7.10;;;6.10;98.50;;;;;;6131572;29;20522;-62
2022/04/21 03:19:31;;;;;;;7.47;6.80;;;6.10;98.20;;;;;;6132892;29;20471;-62
2022/04/21 03:25:56;;;;;;;8.73;7.93;;;6.00;98.10;;;;;;6131637;29;20502;-62
2022/04/21 03:28:59;;;;;;;9.10;8.20;;;5.90;98.20;;;;;;6131945;29;20490;-62
2022/04/21 03:32:02;;;;;;;8.80;7.90;;;5.90;98.30;;;;;;6131899;29;20823;-61
2022/04/21 03:35:06;;;;;;;7.10;6.40;;;5.90;98.40;;;;;;6131748;29;20489;-62
2022/04/21 03:38:09;;;;;;;9.30;8.40;;;5.90;98.50;;;;;;6132250;29;20493;-62
2022/04/21 03:41:14;;;;;;;8.43;7.53;;;5.90;98.40;;;;;;6131090;29;20476;-62
2022/04/21 03:44:22;;;;;;;8.43;7.53;;;5.90;98.50;;;;;;6131856;29;20495;-62
2022/04/21 03:47:25;;;;;;;8.03;7.37;;;5.80;98.40;;;;;;6131385;29;21002;-61
2022/04/21 03:50:31;;;;;;;9.33;7.13;;;5.80;98.70;;;;;;6131231;29;20486;-61
2022/04/21 03:53:34;;;;;;;7.67;6.97;;;5.80;98.60;;;;;;6130843;29;20523;-63
2022/04/21 03:56:38;;;;;;;9.03;8.17;;;5.80;98.70;;;;;;6129705;29;20505;-62
2022/04/21 03:59:42;;;;;;;8.80;8.00;;;5.70;99.10;;;;;;6125552;29;20490;-62
2022/04/21 04:02:45;;;;;;;9.00;8.10;;;5.70;98.80;;;;;;6129465;28;20833;-62
2022/04/21 04:05:48;;;;;;;8.43;7.63;;;5.70;98.80;;;;;;6130040;29;20490;-62
2022/04/21 04:12:13;;;;;;;9.93;7.87;;;5.80;98.90;;;;;;6131189;29;20495;-63
2022/04/21 04:15:16;;;;;;;8.90;7.67;;;5.80;98.80;;;;;;6130716;29;20472;-63
2022/04/21 04:18:20;;;;;;;7.23;6.63;;;5.80;98.80;;;;;;6131137;29;20486;-62
2022/04/21 04:21:23;;;;;;;8.03;7.37;;;5.80;98.80;;;;;;6130649;29;20920;-62
2022/04/21 04:24:26;;;;;;;9.33;8.43;;;5.80;98.70;;;;;;6130774;29;20484;-62
2022/04/21 04:27:30;;;;;;;10.87;8.50;;;5.90;98.70;;;;;;6130912;29;20479;-62
2022/04/21 04:30:34;;;;;;;7.83;7.13;;;5.80;98.70;;;;;;6130727;29;20483;-63
2022/04/21 04:33:37;;;;;;;10.07;7.57;;;5.80;98.50;;;;;;6130547;29;20486;-62
2022/04/21 04:36:40;;;;;;;10.17;7.50;;;5.80;98.70;;;;;;6146418;29;20478;-62
2022/04/21 04:39:43;;;;;;;9.23;8.13;;;5.80;98.80;;;;;;6144551;29;20486;-62
2022/04/21 04:42:48;;;;;;;9.33;8.53;;;5.80;99.20;;;;;;6131752;29;20983;-63
2022/04/21 04:49:12;;;;;;;12.30;8.60;;;5.80;99.00;;;;;;6130944;28;20440;-62
2022/04/21 04:52:16;;;;;;;8.03;7.17;;;5.90;98.90;;;;;;6130687;29;20483;-63
2022/04/21 04:55:20;;;;;;;9.70;8.27;;;6.00;98.80;;;;;;6130314;29;20481;-63
2022/04/21 04:58:24;;;;;;;10.17;8.53;;;6.00;98.80;;;;;;6130418;29;20477;-63
2022/04/21 05:01:30;;;;;;;8.57;7.70;;;6.10;98.70;;;;;;6129912;29;20956;-63
2022/04/21 05:04:34;;;;;;;8.90;8.10;;;6.20;98.60;;;;;;6121180;29;20483;-63
2022/04/21 05:07:39;;;;;;;11.53;7.27;;;6.30;98.70;;;;;;6129964;28;20800;-63
2022/04/21 05:10:42;;;;;;;9.63;8.67;;;6.40;98.30;;;;;;6129836;29;20475;-63
2022/04/21 05:13:46;;;;;;;11.27;8.47;;;6.50;97.90;;;;;;6129829;29;20472;-63
2022/04/21 05:16:50;;;;;;;8.70;7.90;;;6.70;97.80;;;;;;6130439;29;20482;-63
2022/04/21 05:19:54;;;;;;;8.70;8.00;;;6.90;97.60;;;;;;6129969;29;20482;-63
2022/04/21 05:23:05;;;;;;;9.07;8.30;;;7.20;97.20;;;;;;6129737;29;20486;-63
2022/04/21 05:26:09;;;;;;;7.90;6.73;;;7.60;97.00;;;;;;6129868;29;20494;-63
2022/04/21 05:32:40;;;;;;;9.37;8.30;;;8.30;95.90;;;;;;6129607;29;20490;-64
2022/04/21 05:35:44;;;;;;;7.90;7.10;;;8.80;94.90;;;;;;6129309;29;20483;-62
2022/04/21 05:38:49;;;;;;;7.50;6.80;;;9.10;93.70;;;;;;6129709;29;20472;-61
2022/04/21 05:41:53;;;;;;;9.63;7.37;;;9.40;93.10;;;;;;6129978;29;20468;-61
2022/04/21 05:44:59;;;;;;;9.20;7.57;;;9.70;92.90;;;;;;6128917;28;20489;-61
2022/04/21 05:48:03;;;;;;;9.50;7.70;;;10.30;91.60;;;;;;6129029;29;20555;-61
2022/04/21 05:51:09;;;;;;;9.23;7.33;;;11.00;90.70;;;;;;6127248;28;20534;-61
2022/04/21 05:54:14;;;;;;;11.20;7.67;;;11.60;86.70;;;;;;6127469;29;20480;-61
2022/04/21 05:57:17;;;;;;;12.53;7.20;;;12.20;85.20;;;;;;6128737;28;20989;-61
2022/04/21 06:00:22;;;;;;;6.87;6.13;;;12.80;82.20;;;;;;6131452;29;20987;-61
2022/04/21 06:03:25;;;;;;;10.20;7.23;;;13.30;79.20;;;;;;6131675;29;20971;-63
2022/04/21 06:06:28;;;;;;;9.33;6.83;;;13.90;76.30;;;;;;6134032;29;20475;-64
2022/04/21 06:09:31;;;;;;;9.30;7.20;;;14.50;74.70;;;;;;6126342;29;20908;-63
2022/04/21 06:12:36;;;;;;;9.07;7.70;;;15.10;70.10;;;;;;6134863;28;20595;-63
2022/04/21 06:15:40;;;;;;;9.90;7.93;;;15.60;66.40;;;;;;6135055;29;20490;-63
2022/04/21 06:18:44;;;;;;;7.47;6.80;;;16.30;63.30;;;;;;6134310;29;20486;-63
2022/04/21 06:21:47;;;;;;;7.17;6.47;;;16.80;59.60;;;;;;6134180;28;20479;-63
2022/04/21 06:24:50;;;;;;;7.63;6.40;;;17.40;57.70;;;;;;6133584;29;20478;-63
2022/04/21 06:27:54;;;;;;;8.03;7.23;;;18.10;55.50;;;;;;6133805;29;20482;-63
2022/04/21 06:30:58;;;;;;;6.43;5.83;;;18.70;53.40;;;;;;6133669;29;20615;-63
2022/04/21 06:34:01;;;;;;;8.10;7.30;;;19.20;51.10;;;;;;6133858;28;20479;-63
2022/04/21 06:37:05;;;;;;;8.73;6.70;;;19.80;49.10;;;;;;6133327;29;20532;-63
2022/04/21 06:40:08;;;;;;;7.83;7.13;;;20.50;47.40;;;;;;6134199;29;20496;-63
2022/04/21 06:49:55;;;;;;;8.60;7.80;;;21.50;43.00;;;;;;6132727;29;20232;-62
2022/04/21 06:52:58;;;;;;;12.27;7.40;;;22.20;41.70;;;;;;6132979;29;20340;-62
2022/04/21 06:56:01;;;;;;;9.40;8.30;;;22.90;40.60;;;;;;6132744;28;20246;-62
2022/04/21 06:59:05;;;;;;;8.97;7.67;;;23.50;39.10;;;;;;6132877;29;20228;-62
2022/04/21 07:02:12;;;;;;;10.27;8.43;;;24.10;37.70;;;;;;6132108;28;20687;-62
2022/04/21 07:05:16;;;;;;;8.40;7.67;;;24.60;36.40;;;;;;6132495;29;20315;-62
2022/04/21 07:08:20;;;;;;;13.17;8.10;;;24.90;35.30;;;;;;6132372;29;20664;-64
2022/04/21 07:11:23;;;;;;;8.77;6.90;;;25.40;34.20;;;;;;6128495;29;20558;-63
2022/04/21 07:14:26;;;;;;;12.07;7.30;;;25.90;33.30;;;;;;6133358;28;20246;-63
2022/04/21 07:17:31;;;;;;;8.33;7.50;;;26.50;32.60;;;;;;6132401;29;20555;-64
2022/04/21 07:20:34;;;;;;;19.90;8.67;;;27.10;30.80;;;;;;6132656;29;20255;-65
2022/04/21 07:23:39;;;;;;;7.70;7.00;;;27.60;30.00;;;;;;6132660;29;20715;-65
2022/04/21 07:26:42;;;;;;;8.40;7.67;;;27.80;29.20;;;;;;6133712;29;20249;-65
2022/04/21 07:29:45;;;;;;;7.90;7.23;;;28.30;29.00;;;;;;6132855;29;20231;-66
2022/04/21 07:32:49;;;;;;;9.20;8.40;;;28.40;28.80;;;;;;6133443;29;20242;-65
2022/04/21 07:35:53;;;;;;;8.87;8.07;;;29.00;28.10;;;;;;6132848;29;20238;-64
2022/04/21 07:38:56;;;;;;;9.40;8.53;;;29.40;27.40;;;;;;6134756;29;20242;-64
2022/04/21 07:42:00;;;;;;;8.30;7.70;;;30.10;27.40;;;;;;6135157;29;20310;-64
2022/04/21 07:45:04;;;;;;;8.63;7.87;;;30.00;26.60;;;;;;6129872;29;20745;-63
2022/04/21 07:48:09;;;;;;;8.40;7.63;;;31.10;26.50;;;;;;6132929;29;20223;-63
2022/04/21 07:51:12;;;;;;;8.60;7.97;;;31.80;25.20;;;;;;6138388;29;20223;-63
2022/04/21 07:54:15;;;;;;;7.90;7.30;;;32.60;24.50;;;;;;6129688;29;20247;-64
2022/04/21 07:57:18;;;;;;;9.00;8.30;;;33.30;24.40;;;;;;6118594;29;20233;-63
2022/04/21 08:00:22;;;;;;;8.88;8.10;;;33.80;23.80;;;;;;6115512;29;20238;-65
2022/04/21 08:03:28;;;;;;;9.00;8.27;;;33.80;22.80;;;;;;6113463;29;20235;-68
2022/04/21 08:06:31;;;;;;;8.77;8.07;;;32.80;23.50;;;;;;6105949;29;20231;-65
2022/04/21 08:09:34;;;;;;;7.93;7.30;;;33.30;23.30;;;;;;6107745;29;20234;-63
2022/04/21 08:12:40;;;;;;;7.95;7.45;;;34.50;23.20;;;;;;6107375;29;20232;-64
2022/04/21 08:15:43;;;;;;;11.25;7.95;;;34.50;22.50;;;;;;6106945;29;20256;-64
2022/04/21 08:18:52;;;;;;;9.02;8.23;;;34.50;21.70;;;;;;6107185;29;20238;-63
2022/04/21 08:21:55;;;;;;;8.65;7.95;;;34.50;21.90;;;;;;6107055;29;20303;-72
2022/04/21 08:35:34;;;;;;;9.60;8.80;;;35.50;21.10;;;;;;6103577;29;20220;-66
2022/04/21 08:38:37;;;;;;;8.75;8.05;;;34.00;21.80;;;;;;6110330;29;20227;-67
2022/04/21 08:41:47;;;;;;;8.55;7.85;;;34.30;22.10;;;;;;6105781;29;20313;-62
2022/04/21 08:44:50;;;;;;;9.05;8.45;;;32.60;22.50;;;;;;6115872;29;20742;-62
2022/04/21 08:47:58;;;;;;;8.15;7.65;;;32.00;23.00;;;;;;6105480;29;20236;-62
2022/04/21 08:51:03;;;;;;;9.73;8.83;;;31.20;23.80;;;;;;6115899;29;20563;-62
2022/04/21 08:54:06;;;;;;;10.60;9.80;;;29.70;25.00;;;;;;6132172;29;20263;-61
2022/04/21 08:57:10;;;;;;;10.90;10.00;;;28.90;25.90;;;;;;6152131;29;20242;-62
2022/04/21 09:00:13;;;;;;;10.20;9.30;;;28.10;27.40;;;;;;6131765;29;20231;-63
2022/04/21 09:03:16;;;;;;;10.77;9.87;;;28.50;27.30;;;;;;6129665;29;20668;-62
2022/04/21 09:06:22;;;;;;;10.47;9.63;;;30.00;26.50;;;;;;6127914;29;20227;-63
2022/04/21 09:09:26;;;;;;;10.33;9.53;;;31.00;25.20;;;;;;6125604;29;20306;-64
2022/04/21 09:12:29;;;;;;;11.23;10.33;;;30.70;24.80;;;;;;6127685;28;20231;-63
2022/04/21 09:15:36;;;;;;;10.30;9.60;;;30.20;25.20;;;;;;6126690;29;20223;-63
2022/04/21 09:18:41;;;;;;;10.30;9.60;;;29.00;26.10;;;;;;6128136;29;20722;-63
2022/04/21 09:21:46;;;;;;;10.43;9.63;;;28.40;26.90;;;;;;6119295;29;20238;-63
2022/04/21 09:24:52;;;;;;;9.27;8.47;;;28.20;27.20;;;;;;6127739;28;20242;-64
2022/04/21 09:27:56;;;;;;;10.27;9.57;;;27.50;27.90;;;;;;6127946;29;20235;-63
2022/04/21 09:31:00;;;;;;;11.00;9.90;;;26.30;28.90;;;;;;6127614;29;20231;-64
2022/04/21 09:34:06;;;;;;;10.30;9.50;;;24.40;31.20;;;;;;6128223;28;20620;-63
2022/04/21 09:37:13;;;;;;;10.33;9.43;;;23.50;32.60;;;;;;6114099;29;20243;-62
2022/04/21 09:40:18;;;;;;;11.37;10.43;;;22.80;33.40;;;;;;6139131;29;20200;-62
2022/04/21 09:43:28;;;;;;;11.03;10.13;;;22.50;34.40;;;;;;6129168;29;20243;-62
2022/04/21 09:46:34;;;;;;;10.87;9.97;;;21.80;35.90;;;;;;6128091;29;20228;-62
2022/04/21 09:49:38;;;;;;;12.23;10.90;;;21.10;36.70;;;;;;6128182;29;20232;-65
2022/04/21 09:52:48;;;;;;;10.57;9.67;;;21.00;37.60;;;;;;6127769;29;20545;-63
2022/04/21 09:55:53;;;;;;;9.63;8.83;;;20.60;38.20;;;;;;6128132;29;20243;-62
2022/04/21 09:58:57;;;;;;;10.07;9.20;;;19.90;39.70;;;;;;6128298;29;20232;-61
2022/04/21 10:02:02;;;;;;;9.40;8.47;;;19.70;39.40;;;;;;6127707;29;20242;-63
2022/04/21 10:05:06;;;;;;;8.60;7.87;;;19.00;39.60;;;;;;6127823;29;20234;-62
2022/04/21 10:08:12;;;;;;;8.03;7.50;;;19.10;39.80;;;;;;6127385;29;20243;-62
2022/04/21 10:11:24;;;;;;;8.03;7.43;;;19.50;40.20;;;;;;6127943;29;20235;-64
2022/04/21 10:14:28;;;;;;;7.90;7.17;;;19.20;40.30;;;;;;6125861;29;20227;-65
2022/04/21 10:17:31;;;;;;;6.70;6.20;;;19.40;38.90;;;;;;6127661;28;20679;-67
2022/04/21 10:20:35;;;;;;;6.53;5.07;;;19.20;38.90;;;;;;6127461;29;20227;-64
2022/04/21 10:23:43;;;;;;;6.37;5.77;;;19.10;38.20;;;;;;6122829;29;20235;-67
2022/04/21 10:26:47;;;;;;;7.07;6.57;;;19.50;38.40;;;;;;6127768;29;20239;-69
2022/04/21 10:29:53;;;;;;;6.83;6.33;;;19.60;38.00;;;;;;6127312;29;20681;-65
2022/04/21 10:32:58;;;;;;;7.03;6.43;;;19.30;38.10;;;;;;6127586;29;20591;-66
2022/04/21 10:36:01;;;;;;;6.23;5.73;;;18.90;38.10;;;;;;6127233;29;20228;-66
2022/04/21 10:39:27;;;;;;;6.17;5.73;;;18.50;38.90;;;;;;6132617;29;20282;-64
2022/04/21 10:42:30;;;;;;;5.93;5.43;;;18.50;39.20;;;;;;6121889;29;20668;-64
2022/04/21 10:45:36;;;;;;;6.30;5.90;;;18.70;39.70;;;;;;6127259;29;20589;-64
2022/04/21 10:48:43;;;;;;;6.70;6.20;;;19.10;39.90;;;;;;6126998;29;20247;-63
2022/04/21 10:58:55;;;;;;;6.73;6.00;;;20.30;38.30;;;;;;6131267;29;20243;-63
2022/04/21 11:02:12;;;;;;;5.93;5.40;;;20.70;36.70;;;;;;6131277;29;20742;-63
2022/04/21 11:05:27;;;;;;;8.43;7.73;;;20.50;34.80;;;;;;6129676;29;20224;-63
2022/04/21 11:08:32;;;;;;;7.80;7.20;;;19.80;37.10;;;;;;6128966;29;20236;-63
2022/04/21 11:11:47;;;;;;;7.63;7.03;;;19.50;37.70;;;;;;6130734;29;20246;-64
2022/04/21 11:14:50;;;;;;;8.67;7.93;;;19.20;38.20;;;;;;6130441;29;20244;-63
2022/04/21 11:18:01;;;;;;;8.80;8.10;;;18.90;39.40;;;;;;6130999;29;20231;-62
2022/04/21 11:21:26;;;;;;;10.30;9.30;;;18.50;40.40;;;;;;6130316;29;20303;-62
2022/04/21 11:25:04;;;;;;;7.53;6.93;;;18.10;41.80;;;;;;6130503;29;20247;-62
2022/04/21 11:28:12;;;;;;;8.50;7.63;;;18.60;41.90;;;;;;6134306;29;20228;-62
2022/04/21 11:31:15;;;;;;;9.00;8.20;;;18.70;41.00;;;;;;6132240;29;20200;-63
2022/04/21 11:34:23;;;;;;;7.60;7.00;;;19.10;41.20;;;;;;6129408;29;20239;-63
2022/04/21 11:37:45;;;;;;;8.60;7.93;;;19.50;41.00;;;;;;6129760;29;20323;-63
2022/04/21 11:40:48;;;;;;;8.83;7.70;;;19.60;39.10;;;;;;6135442;29;20244;-62
2022/04/21 11:43:53;;;;;;;8.27;7.63;;;19.60;39.30;;;;;;6113538;29;20246;-62
2022/04/21 11:46:56;;;;;;;8.80;8.10;;;19.40;40.30;;;;;;6129919;29;20231;-63
2022/04/21 11:50:00;;;;;;;9.50;8.70;;;19.70;40.20;;;;;;6130589;29;20236;-63
2022/04/21 11:53:12;;;;;;;8.80;7.90;;;19.90;39.60;;;;;;6130882;29;20228;-63
2022/04/21 11:56:17;;;;;;;8.17;7.43;;;19.80;39.70;;;;;;6131570;29;20258;-63
2022/04/21 11:59:35;;;;;;;9.00;8.40;;;20.00;39.60;;;;;;6130179;29;20235;-63
2022/04/21 12:06:32;;;;;;;7.87;7.07;;;19.90;40.40;;;;;;6096572;29;20238;-64
2022/04/21 12:09:39;;;;;;;7.67;6.97;;;20.10;39.10;;;;;;6130212;29;20728;-64
2022/04/21 12:12:43;;;;;;;7.10;6.60;;;20.10;38.90;;;;;;6130361;29;20236;-64
2022/04/21 12:15:51;;;;;;;7.33;6.73;;;19.80;37.80;;;;;;6130070;29;20314;-64
2022/04/21 12:18:54;;;;;;;7.10;6.60;;;20.10;38.30;;;;;;6129673;29;20236;-64
2022/04/21 12:22:00;;;;;;;7.03;6.13;;;19.80;38.70;;;;;;6128975;29;20242;-62
2022/04/21 12:25:12;;;;;;;6.17;5.67;;;19.30;37.70;;;;;;6129236;29;20221;-62
2022/04/21 12:28:15;;;;;;;8.10;5.70;;;19.40;38.10;;;;;;6129383;29;20347;-65
2022/04/21 12:31:20;;;;;;;6.50;5.97;;;19.90;37.80;;;;;;6124960;29;20208;-64
2022/04/21 12:34:27;;;;;;;7.13;5.33;;;19.60;37.80;;;;;;6129448;29;20244;-64
2022/04/21 12:37:32;;;;;;;7.10;6.50;;;19.90;38.30;;;;;;6130550;29;20665;-66
2022/04/21 12:40:37;;;;;;;8.00;7.40;;;20.50;37.70;;;;;;6137663;29;20237;-66
2022/04/21 12:43:40;;;;;;;7.37;6.83;;;20.50;37.20;;;;;;6131180;29;20231;-64
2022/04/21 12:46:56;;;;;;;7.93;7.10;;;20.30;37.70;;;;;;6129104;29;20243;-66
2022/04/21 12:50:01;;;;;;;7.30;6.70;;;20.80;37.70;;;;;;6131355;29;20485;-64
2022/04/21 12:53:04;;;;;;;8.60;7.90;;;20.90;37.80;;;;;;6130061;29;20317;-64
2022/04/21 12:56:12;;;;;;;7.90;7.30;;;20.50;38.10;;;;;;6128450;29;20239;-62
2022/04/21 12:59:15;;;;;;;6.77;6.23;;;20.20;38.30;;;;;;6128699;29;20321;-62
2022/04/21 13:02:20;;;;;;;7.53;6.93;;;19.40;39.60;;;;;;6128576;29;20242;-63
2022/04/21 13:05:23;;;;;;;7.57;6.87;;;18.90;39.80;;;;;;6129249;29;20232;-62
2022/04/21 13:08:28;;;;;;;7.63;6.83;;;18.90;40.10;;;;;;6128739;29;20765;-62
2022/04/21 13:11:31;;;;;;;7.17;6.63;;;19.20;41.50;;;;;;6128421;29;20695;-63
2022/04/21 13:14:34;;;;;;;7.83;6.40;;;19.40;41.50;;;;;;6127806;29;20363;-63
2022/04/21 13:17:40;;;;;;;7.00;6.47;;;19.70;41.20;;;;;;6134881;29;20227;-64
2022/04/21 13:24:04;;;;;;;7.10;6.53;;;18.90;40.70;;;;;;6130156;29;20250;-63
2022/04/21 13:27:07;;;;;;;7.40;6.80;;;19.10;40.60;;;;;;6128809;29;20250;-62
2022/04/21 13:30:12;;;;;;;7.70;7.10;;;19.10;41.30;;;;;;6128153;29;20238;-63
2022/04/21 13:33:21;;;;;;;7.10;6.50;;;19.10;41.70;;;;;;6128035;29;20382;-62
2022/04/21 13:36:24;;;;;;;8.57;7.80;;;19.00;41.90;;;;;;6123852;29;20246;-60
2022/04/21 13:39:27;;;;;;;5.97;5.47;;;18.60;42.30;;;;;;6137227;29;20223;-59
2022/04/21 13:42:35;;;;;;;6.90;6.40;;;18.70;42.60;;;;;;6151616;29;20274;-60
2022/04/21 13:45:39;;;;;;;8.90;8.17;;;18.70;41.60;;;;;;6151598;29;20324;-63
2022/04/21 13:48:44;;;;;;;8.23;7.47;;;18.70;42.60;;;;;;6150823;29;20242;-62
2022/04/21 13:51:48;;;;;;;7.47;6.97;;;18.90;42.90;;;;;;6151621;29;20293;-62
2022/04/21 13:54:55;;;;;;;8.30;7.60;;;19.00;42.90;;;;;;6150790;29;20292;-60
2022/04/21 13:57:59;;;;;;;7.93;7.20;;;18.80;43.40;;;;;;6151460;29;20245;-63
2022/04/21 14:01:03;;;;;;;8.73;8.07;;;18.80;44.00;;;;;;6150819;29;20223;-62
2022/04/21 14:04:08;;;;;;;10.23;9.13;;;18.80;44.50;;;;;;6151502;29;20230;-62
2022/04/21 14:07:11;;;;;;;8.43;7.83;;;18.60;44.40;;;;;;6136097;29;20222;-61
2022/04/21 14:10:14;;;;;;;7.80;7.07;;;18.60;44.40;;;;;;6127668;29;20543;-61
2022/04/21 14:13:18;;;;;;;9.17;8.47;;;18.60;44.90;;;;;;6127283;29;20226;-64
2022/04/21 14:16:21;;;;;;;9.00;8.20;;;18.80;44.70;;;;;;6127567;29;20218;-61
2022/04/21 14:19:41;;;;;;;7.20;6.70;;;18.70;45.10;;;;;;6128127;29;20291;-63
2022/04/21 14:22:45;;;;;;;8.40;7.80;;;18.80;44.70;;;;;;6127371;29;20240;-60
2022/04/21 14:25:54;;;;;;;7.50;6.90;;;18.60;44.70;;;;;;6118943;29;20232;-60
2022/04/21 14:29:04;;;;;;;7.60;7.00;;;18.50;44.90;;;;;;6131496;29;20293;-63
2022/04/21 14:32:16;;;;;;;7.57;6.97;;;18.40;44.50;;;;;;6122482;29;20236;-63
2022/04/21 14:35:31;;;;;;;7.47;6.87;;;18.40;44.20;;;;;;6130230;29;20232;-61
2022/04/21 14:45:36;;;;;;;6.50;6.00;;;18.80;43.80;;;;;;6067547;29;20620;-62
2022/04/21 14:48:40;;;;;;;6.70;6.10;;;18.80;43.90;;;;;;6107857;29;20236;-65
2022/04/21 14:51:45;;;;;;;6.27;5.77;;;18.60;43.90;;;;;;6108133;29;20233;-64
2022/04/21 14:54:48;;;;;;;6.37;5.87;;;18.50;43.80;;;;;;6107372;29;20678;-63
2022/04/21 14:57:51;;;;;;;6.00;5.50;;;18.10;43.50;;;;;;6107967;29;20575;-64
2022/04/21 15:00:55;;;;;;;5.33;4.93;;;18.00;43.00;;;;;;6107792;29;20480;-63
2022/04/21 15:03:58;;;;;;;5.73;5.30;;;18.20;43.40;;;;;;6108813;29;20545;-61
2022/04/21 15:07:05;;;;;;;5.80;5.30;;;18.50;43.20;;;;;;6124201;29;20233;-63
2022/04/21 15:10:09;;;;;;;7.83;7.10;;;18.80;42.70;;;;;;6148423;29;20218;-64
2022/04/21 15:13:12;;;;;;;7.10;6.20;;;19.00;42.70;;;;;;6136084;29;20318;-65
2022/04/21 15:16:15;;;;;;;5.73;5.23;;;19.10;42.60;;;;;;6135320;29;20672;-64
2022/04/21 15:19:19;;;;;;;5.90;5.40;;;19.10;42.90;;;;;;6132115;29;20231;-63
2022/04/21 15:22:23;;;;;;;5.10;4.70;;;19.00;42.80;;;;;;6132999;29;20283;-63
2022/04/21 15:25:27;;;;;;;10.30;5.43;;;19.10;42.80;;;;;;6132440;29;20228;-63
2022/04/21 15:28:30;;;;;;;5.00;4.50;;;19.30;42.40;;;;;;6131924;29;20234;-64
2022/04/21 15:31:34;;;;;;;6.03;5.13;;;19.30;42.00;;;;;;6132139;29;20239;-63
2022/04/21 15:34:37;;;;;;;5.23;4.83;;;19.20;42.10;;;;;;6132258;29;20246;-64
2022/04/21 15:37:42;;;;;;;5.80;5.30;;;19.00;42.20;;;;;;6130898;29;20251;-64
2022/04/21 15:40:46;;;;;;;5.93;5.07;;;18.90;42.60;;;;;;6127410;29;20356;-64
2022/04/21 15:43:50;;;;;;;5.90;5.30;;;18.90;42.60;;;;;;6132041;29;20236;-65
2022/04/21 15:46:53;;;;;;;4.70;4.30;;;19.00;42.40;;;;;;6131499;29;20719;-62
2022/04/21 15:49:56;;;;;;;5.37;4.60;;;18.90;42.30;;;;;;6131509;29;20700;-62
2022/04/21 15:58:48;;;;;;;4.93;4.53;;;18.80;42.30;;;;;;6131376;29;20247;-62
2022/04/21 15:59:46;;;;;;;5.23;4.73;;;18.30;43.40;;;;;;6131406;29;20243;-62
2022/04/21 16:02:49;;;;;;;5.57;5.00;;;18.20;43.50;;;;;;6131722;29;20587;-62
2022/04/21 16:05:52;;;;;;;4.80;4.40;;;18.10;43.50;;;;;;6130660;29;20471;-60
2022/04/21 16:08:57;;;;;;;5.73;5.20;;;18.10;44.20;;;;;;6131022;29;20231;-61
2022/04/21 16:12:00;;;;;;;5.50;4.23;;;18.10;44.20;;;;;;6130591;29;20957;-61
2022/04/21 16:15:03;;;;;;;6.17;5.57;;;18.10;43.80;;;;;;6130371;29;20241;-63
2022/04/21 16:18:07;;;;;;;5.40;4.90;;;18.10;43.80;;;;;;6130844;29;20330;-62
2022/04/21 16:21:10;;;;;;;5.80;5.30;;;18.10;43.80;;;;;;6130482;29;20581;-62
2022/04/21 16:24:14;;;;;;;5.70;5.30;;;17.90;44.10;;;;;;6130300;29;20250;-62
2022/04/21 16:27:18;;;;;;;7.70;4.87;;;17.60;44.20;;;;;;6129999;29;20478;-62
2022/04/21 16:30:21;;;;;;;6.37;4.60;;;17.30;44.40;;;;;;6130233;29;20476;-62
2022/04/21 16:33:24;;;;;;;5.70;5.20;;;17.20;44.60;;;;;;6129941;29;20471;-63
2022/04/21 16:36:27;;;;;;;4.47;4.13;;;17.00;44.80;;;;;;6130169;29;20499;-63
2022/04/21 16:39:32;;;;;;;4.83;4.37;;;16.70;45.50;;;;;;6130293;29;20468;-62
2022/04/21 16:42:38;;;;;;;5.10;4.70;;;16.80;45.10;;;;;;6131119;29;20490;-62
2022/04/21 16:45:42;;;;;;;4.73;4.27;;;16.70;45.00;;;;;;6132747;29;20475;-64
2022/04/21 16:48:45;;;;;;;4.20;3.90;;;16.70;45.10;;;;;;6131024;29;20635;-62
2022/04/21 16:51:49;;;;;;;4.07;3.77;;;16.60;45.20;;;;;;6132357;29;20574;-63
2022/04/21 16:54:59;;;;;;;4.23;3.87;;;16.50;45.40;;;;;;6132509;29;20484;-63
2022/04/21 16:58:02;;;;;;;5.93;3.73;;;16.50;45.70;;;;;;6132395;29;20801;-63
2022/04/21 17:04:29;;;;;;;4.77;4.07;;;16.50;44.40;;;;;;6129722;29;20969;-62
2022/04/21 17:07:32;;;;;;;4.03;3.73;;;16.40;43.90;;;;;;6129820;29;20542;-62
2022/04/21 17:10:38;;;;;;;5.40;4.50;;;16.30;44.10;;;;;;6129576;29;20472;-63